createdAt,value
2023-02-14T00:01:20.602Z,5.60
2023-02-14T00:03:50.146Z,5.70
2023-02-14T00:06:18.066Z,5.70
2023-02-14T00:08:45.832Z,5.60
2023-02-14T00:11:14.464Z,5.60
2023-02-14T00:14:02.970Z,5.70
2023-02-14T00:16:29.949Z,5.50
2023-02-14T00:19:05.895Z,5.40
2023-02-14T00:21:36.525Z,5.20
2023-02-14T00:24:05.418Z,5.20
2023-02-14T00:26:33.460Z,5.20
2023-02-14T00:29:04.619Z,5.10
2023-02-14T00:31:32.685Z,5.20
2023-02-14T00:34:02.058Z,5.20
2023-02-14T00:36:29.909Z,5.10
2023-02-14T00:38:57.789Z,5.30
2023-02-14T00:41:25.808Z,5.30
2023-02-14T00:43:54.419Z,5.30
2023-02-14T00:46:24.281Z,5.40
2023-02-14T00:48:52.859Z,5.50
2023-02-14T00:51:22.753Z,5.40
2023-02-14T00:53:51.239Z,5.50
2023-02-14T00:56:19.752Z,5.50
2023-02-14T00:58:48.141Z,5.60
2023-02-14T01:01:17.280Z,5.60
2023-02-14T01:03:45.084Z,5.70
2023-02-14T01:06:12.872Z,5.60
2023-02-14T01:08:41.994Z,5.50
2023-02-14T01:11:11.041Z,5.40
2023-02-14T01:13:38.862Z,5.20
2023-02-14T01:16:09.172Z,5.10
2023-02-14T01:18:37.994Z,5.00
2023-02-14T01:21:17.540Z,4.90
2023-02-14T01:23:47.880Z,4.90
2023-02-14T01:26:16.636Z,4.90
2023-02-14T01:28:45.389Z,5.00
2023-02-14T01:31:15.712Z,5.00
2023-02-14T01:33:46.716Z,4.90
2023-02-14T01:36:19.825Z,4.90
2023-02-14T01:38:51.536Z,5.00
2023-02-14T01:41:19.702Z,5.10
2023-02-14T01:43:52.256Z,5.10
2023-02-14T01:46:20.089Z,5.10
2023-02-14T01:48:49.101Z,5.20
2023-02-14T01:51:19.725Z,5.20
2023-02-14T01:53:48.997Z,5.20
2023-02-14T01:56:20.862Z,5.20
2023-02-14T01:58:54.187Z,5.10
2023-02-14T02:01:22.434Z,5.00
2023-02-14T02:03:53.901Z,5.00
2023-02-14T02:06:25.549Z,5.00
2023-02-14T02:09:03.963Z,5.00
2023-02-14T02:11:31.882Z,5.00
2023-02-14T02:13:59.581Z,4.90
2023-02-14T02:16:53.666Z,5.00
2023-02-14T02:19:55.337Z,4.90
2023-02-14T02:22:59.560Z,4.80
2023-02-14T02:25:49.101Z,4.90
2023-02-14T02:28:42.736Z,4.90
2023-02-14T02:31:38.378Z,5.00
2023-02-14T02:34:41.924Z,5.10
2023-02-14T02:37:24.026Z,5.10
2023-02-14T02:40:07.045Z,5.10
2023-02-14T02:42:44.043Z,5.20
2023-02-14T02:45:20.741Z,5.20
2023-02-14T02:47:55.910Z,5.20
2023-02-14T02:50:44.938Z,5.10
2023-02-14T02:53:21.001Z,5.00
2023-02-14T02:56:12.193Z,4.90
2023-02-14T02:58:44.028Z,5.00
2023-02-14T03:01:15.901Z,5.00
2023-02-14T03:04:05.212Z,5.00
2023-02-14T03:06:34.244Z,4.90
2023-02-14T03:09:13.000Z,4.90
2023-02-14T03:11:50.036Z,5.00
2023-02-14T03:14:21.396Z,5.00
2023-02-14T03:17:00.902Z,5.10
2023-02-14T03:20:00.560Z,5.10
2023-02-14T03:22:39.099Z,4.80
2023-02-14T03:25:18.057Z,4.90
2023-02-14T03:27:48.505Z,4.70
2023-02-14T03:30:21.627Z,4.60
2023-02-14T03:32:59.429Z,4.70
2023-02-14T03:35:32.886Z,4.70
2023-02-14T03:38:08.306Z,4.80
2023-02-14T03:40:41.370Z,4.90
2023-02-14T03:43:12.802Z,5.00
2023-02-14T03:45:45.527Z,4.90
2023-02-14T03:48:16.033Z,4.90
2023-02-14T03:50:47.302Z,4.90
2023-02-14T03:53:21.126Z,4.70
2023-02-14T03:55:55.239Z,4.70
2023-02-14T03:58:27.487Z,4.70
2023-02-14T04:01:01.824Z,4.70
2023-02-14T04:03:31.050Z,4.60
2023-02-14T04:05:59.779Z,4.60
2023-02-14T04:08:30.601Z,4.50
2023-02-14T04:11:02.936Z,4.70
2023-02-14T04:13:30.957Z,4.70
2023-02-14T04:15:58.911Z,4.70
2023-02-14T04:18:44.297Z,4.70
2023-02-14T04:21:12.047Z,4.70
2023-02-14T04:23:39.779Z,4.80
2023-02-14T04:26:09.122Z,4.80
2023-02-14T04:28:40.609Z,4.80
2023-02-14T04:31:10.638Z,4.80
2023-02-14T04:33:41.788Z,4.80
2023-02-14T04:36:09.682Z,4.70
2023-02-14T04:38:37.424Z,4.70
2023-02-14T04:41:05.535Z,4.70
2023-02-14T04:43:34.594Z,4.60
2023-02-14T04:46:02.340Z,4.60
2023-02-14T04:48:30.047Z,4.60
2023-02-14T04:50:57.977Z,4.50
2023-02-14T04:53:25.957Z,4.40
2023-02-14T04:55:53.688Z,4.40
2023-02-14T04:58:21.406Z,4.40
2023-02-14T05:00:50.550Z,4.40
2023-02-14T05:03:18.289Z,4.50
2023-02-14T05:05:46.062Z,4.50
2023-02-14T05:08:14.427Z,4.60
2023-02-14T05:10:42.468Z,4.50
2023-02-14T05:13:10.401Z,4.50
2023-02-14T05:15:38.724Z,4.40
2023-02-14T05:18:07.892Z,4.40
2023-02-14T05:20:35.614Z,4.50
2023-02-14T05:23:05.376Z,4.50
2023-02-14T05:25:33.160Z,4.60
2023-02-14T05:28:00.955Z,4.50
2023-02-14T05:30:30.166Z,4.30
2023-02-14T05:32:58.233Z,4.30
2023-02-14T05:35:27.606Z,4.30
2023-02-14T05:37:55.926Z,4.30
2023-02-14T05:40:26.644Z,4.30
2023-02-14T05:42:55.817Z,4.30
2023-02-14T05:45:24.179Z,4.30
2023-02-14T05:47:52.191Z,4.40
2023-02-14T05:50:20.091Z,4.30
2023-02-14T05:52:49.191Z,4.30
2023-02-14T05:55:20.517Z,4.40
2023-02-14T05:57:48.562Z,4.30
2023-02-14T06:00:20.733Z,4.50
2023-02-14T06:02:48.457Z,4.60
2023-02-14T06:05:18.270Z,4.60
2023-02-14T06:07:50.292Z,4.50
2023-02-14T06:10:21.027Z,4.50
2023-02-14T06:12:49.799Z,4.70
2023-02-14T06:15:18.047Z,4.80
2023-02-14T06:17:47.107Z,4.80
2023-02-14T06:20:15.000Z,4.70
2023-02-14T06:22:42.794Z,4.70
2023-02-14T06:25:10.553Z,4.60
2023-02-14T06:27:39.726Z,4.70
2023-02-14T06:30:09.456Z,4.80
2023-02-14T06:32:37.344Z,4.80
2023-02-14T06:35:05.478Z,4.70
2023-02-14T06:37:33.248Z,4.70
2023-02-14T06:40:01.956Z,4.70
2023-02-14T06:42:29.701Z,4.60
2023-02-14T06:44:58.771Z,4.70
2023-02-14T06:47:26.522Z,4.70
2023-02-14T06:49:54.449Z,4.70
2023-02-14T06:52:22.169Z,4.80
2023-02-14T06:54:49.929Z,4.70
2023-02-14T06:57:17.685Z,4.70
2023-02-14T06:59:45.407Z,4.80
2023-02-14T07:02:14.568Z,4.80
2023-02-14T07:04:42.277Z,4.80
2023-02-14T07:07:09.996Z,4.90
2023-02-14T07:09:37.817Z,5.00
2023-02-14T07:12:05.818Z,5.20
2023-02-14T07:14:33.537Z,5.10
2023-02-14T07:17:01.327Z,5.00
2023-02-14T07:19:31.188Z,5.00
2023-02-14T07:21:58.962Z,5.00
2023-02-14T07:24:26.807Z,5.10
2023-02-14T07:26:54.588Z,5.20
2023-02-14T07:29:25.813Z,5.20
2023-02-14T07:31:53.785Z,5.20
2023-02-14T07:34:21.533Z,5.20
2023-02-14T07:36:50.615Z,5.30
2023-02-14T07:39:18.337Z,5.40
2023-02-14T07:41:46.095Z,5.60
2023-02-14T07:44:17.185Z,5.60
2023-02-14T07:46:44.932Z,5.50
2023-02-14T07:49:12.892Z,5.50
2023-02-14T07:51:40.648Z,5.60
2023-02-14T07:54:09.824Z,5.60
2023-02-14T07:56:37.565Z,5.50
2023-02-14T07:59:05.298Z,5.50
2023-02-14T08:01:33.064Z,5.40
2023-02-14T08:04:00.840Z,5.40
2023-02-14T08:06:28.754Z,5.40
2023-02-14T08:08:56.697Z,5.40
2023-02-14T08:11:42.709Z,5.30
2023-02-14T08:14:10.440Z,5.40
2023-02-14T08:16:39.125Z,5.50
2023-02-14T08:19:06.899Z,5.60
2023-02-14T08:21:34.905Z,5.70
2023-02-14T08:24:02.698Z,5.90
2023-02-14T08:26:32.465Z,5.90
2023-02-14T08:29:00.188Z,6.00
2023-02-14T08:31:35.699Z,6.00
2023-02-14T08:34:04.467Z,6.00
2023-02-14T08:36:32.485Z,6.20
2023-02-14T08:39:00.190Z,6.20
2023-02-14T08:41:28.085Z,6.20
2023-02-14T08:43:57.239Z,6.30
2023-02-14T08:46:25.026Z,6.30
2023-02-14T08:48:53.526Z,6.40
2023-02-14T08:51:22.688Z,6.60
2023-02-14T08:53:51.921Z,6.40
2023-02-14T08:56:21.419Z,6.40
2023-02-14T08:58:52.249Z,6.50
2023-02-14T09:01:21.471Z,6.40
2023-02-14T09:03:49.752Z,6.40
2023-02-14T09:06:18.395Z,6.40
2023-02-14T09:08:46.901Z,6.50
2023-02-14T09:11:18.542Z,6.50
2023-02-14T09:13:47.407Z,6.60
2023-02-14T09:16:17.569Z,6.60
2023-02-14T09:18:48.681Z,6.40
2023-02-14T09:21:19.267Z,6.30
2023-02-14T09:23:47.136Z,6.40
2023-02-14T09:26:16.602Z,6.50
2023-02-14T09:28:44.803Z,6.60
2023-02-14T09:31:14.821Z,6.80
2023-02-14T09:33:43.164Z,6.90
2023-02-14T09:36:29.735Z,6.80
2023-02-14T09:38:57.508Z,6.70
2023-02-14T09:42:08.670Z,6.70
2023-02-14T09:44:40.044Z,6.50
2023-02-14T09:47:19.368Z,6.50
2023-02-14T09:49:48.594Z,6.70
2023-02-14T09:52:20.741Z,6.90
2023-02-14T09:54:54.401Z,6.60
2023-02-14T09:57:27.738Z,6.50
2023-02-14T10:00:02.990Z,6.50
2023-02-14T10:02:45.150Z,6.50
2023-02-14T10:05:16.836Z,6.50
2023-02-14T10:08:01.105Z,6.60
2023-02-14T10:10:31.472Z,6.50
2023-02-14T10:13:07.952Z,6.40
2023-02-14T10:15:40.320Z,6.40
2023-02-14T10:18:15.173Z,6.50
2023-02-14T10:20:45.385Z,6.50
2023-02-14T10:23:37.793Z,6.50
2023-02-14T10:26:08.674Z,6.60
2023-02-14T10:28:40.915Z,6.70
2023-02-14T10:31:25.363Z,7.00
2023-02-14T10:33:57.700Z,6.90
2023-02-14T10:36:45.026Z,6.90
2023-02-14T10:39:35.611Z,7.10
2023-02-14T10:42:09.922Z,7.20
2023-02-14T10:44:45.937Z,7.40
2023-02-14T10:47:27.164Z,7.50
2023-02-14T10:50:02.688Z,7.40
2023-02-14T10:52:36.726Z,7.30
2023-02-14T10:55:31.535Z,7.20
2023-02-14T10:58:02.514Z,7.20
2023-02-14T11:00:35.035Z,7.00
2023-02-14T11:03:07.257Z,7.20
2023-02-14T11:05:39.036Z,7.30
2023-02-14T11:08:15.953Z,7.40
2023-02-14T11:10:45.231Z,7.30
2023-02-14T11:13:32.907Z,7.20
2023-02-14T11:16:02.874Z,7.30
2023-02-14T11:18:33.131Z,7.50
2023-02-14T11:21:02.952Z,7.60
2023-02-14T11:23:34.919Z,7.70
2023-02-14T11:26:06.365Z,7.80
2023-02-14T11:28:35.784Z,7.70
2023-02-14T11:31:04.511Z,7.60
2023-02-14T11:33:38.260Z,7.60
2023-02-14T11:36:11.727Z,7.60
2023-02-14T11:38:40.658Z,7.60
2023-02-14T11:41:25.886Z,7.70
2023-02-14T11:44:10.234Z,7.70
2023-02-14T11:46:52.316Z,7.70
2023-02-14T11:49:28.381Z,7.60
2023-02-14T11:51:57.471Z,7.60
2023-02-14T11:54:35.801Z,7.70
2023-02-14T11:57:07.795Z,7.70
2023-02-14T11:59:38.979Z,7.70
2023-02-14T12:02:22.844Z,7.60
2023-02-14T12:04:54.053Z,7.70
2023-02-14T12:07:26.635Z,7.70
2023-02-14T12:10:19.828Z,7.70
2023-02-14T12:12:59.183Z,7.70
2023-02-14T12:15:34.335Z,7.70
2023-02-14T12:18:21.792Z,7.80
2023-02-14T12:20:56.468Z,7.80
2023-02-14T12:23:30.942Z,7.80
2023-02-14T12:26:04.020Z,7.90
2023-02-14T12:28:39.486Z,7.80
2023-02-14T12:31:11.989Z,7.70
2023-02-14T12:33:40.564Z,7.70
2023-02-14T12:36:17.742Z,7.80
2023-02-14T12:38:56.242Z,7.90
2023-02-14T12:41:36.181Z,8.00
2023-02-14T12:44:12.271Z,8.00
2023-02-14T12:46:59.972Z,8.00
2023-02-14T12:49:44.433Z,7.80
2023-02-14T12:52:30.086Z,7.80
2023-02-14T12:55:18.163Z,7.90
2023-02-14T12:57:54.543Z,7.90
2023-02-14T13:00:34.061Z,7.90
2023-02-14T13:03:32.241Z,8.00
2023-02-14T13:06:05.508Z,7.90
2023-02-14T13:09:12.470Z,7.80
2023-02-14T13:11:52.999Z,7.80
2023-02-14T13:14:34.705Z,7.70
2023-02-14T13:17:11.132Z,7.70
2023-02-14T13:19:47.027Z,7.70
2023-02-14T13:22:19.060Z,7.70
2023-02-14T13:24:50.306Z,7.70
2023-02-14T13:27:23.802Z,7.70
2023-02-14T13:29:55.616Z,7.80
2023-02-14T13:32:29.413Z,7.60
2023-02-14T13:34:58.019Z,7.60
2023-02-14T13:37:27.351Z,7.50
2023-02-14T13:39:58.092Z,7.60
2023-02-14T13:42:54.638Z,7.60
2023-02-14T13:45:52.189Z,7.60
2023-02-14T13:48:24.258Z,7.60
2023-02-14T13:50:55.384Z,7.60
2023-02-14T13:53:35.315Z,7.60
2023-02-14T13:56:05.666Z,7.60
2023-02-14T13:58:34.700Z,7.60
2023-02-14T14:01:40.515Z,7.50
2023-02-14T14:04:36.781Z,7.40
2023-02-14T14:07:27.108Z,7.40
2023-02-14T14:10:02.060Z,7.40
2023-02-14T14:12:46.155Z,7.40
2023-02-14T14:15:20.447Z,7.40
2023-02-14T14:18:08.445Z,7.30
2023-02-14T14:20:45.746Z,7.30
2023-02-14T14:23:38.562Z,7.30
2023-02-14T14:26:39.578Z,7.30
2023-02-14T14:29:18.452Z,7.40
2023-02-14T14:31:47.579Z,7.30
2023-02-14T14:34:20.545Z,7.30
2023-02-14T14:36:49.824Z,7.20
2023-02-14T14:39:28.179Z,7.20
2023-02-14T14:41:56.605Z,7.20
2023-02-14T14:44:25.729Z,7.30
2023-02-14T14:46:53.968Z,7.30
2023-02-14T14:49:22.564Z,7.20
2023-02-14T14:51:51.703Z,7.00
2023-02-14T14:54:25.067Z,6.90
2023-02-14T14:56:56.818Z,6.90
2023-02-14T14:59:31.389Z,6.80
2023-02-14T15:01:59.450Z,6.90
2023-02-14T15:04:29.155Z,7.00
2023-02-14T15:07:17.790Z,7.00
2023-02-14T15:09:46.190Z,7.00
2023-02-14T15:12:36.064Z,7.00
2023-02-14T15:15:05.193Z,6.90
2023-02-14T15:17:33.997Z,6.90
2023-02-14T15:20:04.606Z,6.80
2023-02-14T15:22:41.908Z,6.80
2023-02-14T15:25:12.698Z,6.80
2023-02-14T15:27:42.339Z,6.70
2023-02-14T15:30:25.144Z,6.70
2023-02-14T15:32:54.231Z,6.60
2023-02-14T15:35:26.608Z,6.50
2023-02-14T15:38:00.223Z,6.50
2023-02-14T15:40:32.150Z,6.30
2023-02-14T15:43:14.052Z,6.30
2023-02-14T15:45:42.828Z,6.30
2023-02-14T15:48:16.605Z,6.40
2023-02-14T15:50:47.530Z,6.40
2023-02-14T15:53:36.123Z,6.50
2023-02-14T15:56:06.809Z,6.50
2023-02-14T15:58:37.202Z,6.30
2023-02-14T16:01:05.631Z,6.20
2023-02-14T16:03:36.956Z,6.20
2023-02-14T16:06:06.164Z,6.20
2023-02-14T16:08:37.449Z,6.10
2023-02-14T16:11:09.781Z,6.10
2023-02-14T16:13:39.267Z,6.10
2023-02-14T16:16:08.489Z,6.10
2023-02-14T16:18:39.048Z,6.10
2023-02-14T16:21:12.878Z,6.10
2023-02-14T16:23:42.543Z,6.10
2023-02-14T16:26:10.315Z,6.20
2023-02-14T16:28:38.602Z,6.10
2023-02-14T16:31:10.304Z,6.10
2023-02-14T16:33:40.137Z,6.20
2023-02-14T16:36:20.569Z,6.20
2023-02-14T16:38:50.753Z,6.20
2023-02-14T16:41:20.620Z,6.20
2023-02-14T16:43:49.571Z,6.20
2023-02-14T16:46:19.868Z,6.10
2023-02-14T16:48:51.994Z,6.10
2023-02-14T16:51:22.119Z,6.10
2023-02-14T16:53:51.901Z,6.10
2023-02-14T16:56:23.794Z,6.10
2023-02-14T16:58:51.584Z,6.10
2023-02-14T17:01:19.456Z,6.00
2023-02-14T17:03:47.375Z,6.00
2023-02-14T17:06:19.360Z,6.00
2023-02-14T17:08:48.203Z,6.00
2023-02-14T17:11:17.487Z,5.90
2023-02-14T17:13:47.727Z,5.90
2023-02-14T17:16:17.112Z,5.90
2023-02-14T17:18:47.694Z,5.90
2023-02-14T17:21:17.426Z,5.90
2023-02-14T17:23:45.358Z,5.90
2023-02-14T17:26:14.261Z,5.90
2023-02-14T17:28:43.379Z,5.90
2023-02-14T17:31:11.935Z,6.00
2023-02-14T17:33:39.964Z,5.90
2023-02-14T17:36:11.844Z,5.90
2023-02-14T17:38:44.981Z,5.90
2023-02-14T17:41:14.582Z,5.90
2023-02-14T17:43:43.757Z,5.90
2023-02-14T17:46:14.204Z,5.90
2023-02-14T17:48:42.248Z,5.90
2023-02-14T17:51:11.016Z,5.90
2023-02-14T17:53:40.458Z,5.90
2023-02-14T17:56:10.772Z,5.90
2023-02-14T17:58:38.947Z,5.80
2023-02-14T18:01:10.269Z,5.80
2023-02-14T18:03:39.097Z,5.80
2023-02-14T18:06:09.318Z,5.80
2023-02-14T18:08:40.176Z,5.80
2023-02-14T18:11:09.381Z,5.80
2023-02-14T18:13:39.494Z,5.80
2023-02-14T18:16:10.996Z,5.90
2023-02-14T18:18:39.432Z,5.90
2023-02-14T18:21:09.578Z,5.80
2023-02-14T18:23:37.774Z,5.70
2023-02-14T18:26:07.862Z,5.70
2023-02-14T18:28:36.363Z,5.60
2023-02-14T18:31:05.461Z,5.60
2023-02-14T18:33:35.517Z,5.70
2023-02-14T18:36:03.659Z,5.70
2023-02-14T18:38:31.512Z,5.70
2023-02-14T18:41:03.356Z,5.60
2023-02-14T18:43:31.576Z,5.70
2023-02-14T18:46:04.299Z,5.60
2023-02-14T18:48:32.696Z,5.70
2023-02-14T18:51:07.427Z,5.50
2023-02-14T18:53:36.454Z,5.60
2023-02-14T18:56:05.986Z,5.60
2023-02-14T18:58:34.712Z,5.70
2023-02-14T19:01:08.972Z,5.80
2023-02-14T19:03:37.434Z,5.80
2023-02-14T19:06:07.832Z,5.80
2023-02-14T19:08:38.147Z,5.80
2023-02-14T19:11:10.379Z,5.70
2023-02-14T19:13:38.137Z,5.70
2023-02-14T19:16:11.341Z,5.60
2023-02-14T19:18:39.230Z,5.50
2023-02-14T19:21:12.795Z,5.50
2023-02-14T19:23:40.880Z,5.60
2023-02-14T19:26:13.219Z,5.60
2023-02-14T19:28:41.616Z,5.60
2023-02-14T19:31:10.335Z,5.60
2023-02-14T19:33:39.616Z,5.50
2023-02-14T19:36:11.606Z,5.60
2023-02-14T19:38:41.280Z,5.50
2023-02-14T19:41:15.196Z,5.50
2023-02-14T19:43:43.068Z,5.40
2023-02-14T19:46:10.916Z,5.40
2023-02-14T19:48:38.662Z,5.30
2023-02-14T19:51:07.297Z,5.40
2023-02-14T19:53:36.923Z,5.40
2023-02-14T19:56:06.396Z,5.40
2023-02-14T19:58:34.196Z,5.40
2023-02-14T20:01:02.330Z,5.30
2023-02-14T20:03:30.627Z,5.30
2023-02-14T20:05:58.519Z,5.40
2023-02-14T20:08:26.264Z,5.30
2023-02-14T20:10:54.158Z,5.30
2023-02-14T20:13:23.272Z,5.40
2023-02-14T20:15:51.540Z,5.30
2023-02-14T20:18:19.357Z,5.30
2023-02-14T20:21:03.079Z,5.30
2023-02-14T20:23:33.151Z,5.30
2023-02-14T20:26:00.966Z,5.20
2023-02-14T20:28:30.145Z,5.20
2023-02-14T20:30:58.011Z,5.00
2023-02-14T20:33:25.836Z,5.00
2023-02-14T20:35:53.955Z,5.00
2023-02-14T20:38:21.772Z,4.90
2023-02-14T20:40:49.519Z,5.00
2023-02-14T20:43:17.215Z,5.00
2023-02-14T20:45:46.642Z,5.00
2023-02-14T20:48:14.364Z,5.00
2023-02-14T20:50:42.223Z,5.00
2023-02-14T20:53:09.962Z,4.80
2023-02-14T20:55:41.725Z,4.80
2023-02-14T20:58:09.440Z,4.70
2023-02-14T21:00:37.275Z,4.70
2023-02-14T21:03:06.782Z,4.60
2023-02-14T21:05:34.577Z,4.70
2023-02-14T21:08:02.296Z,4.60
2023-02-14T21:10:30.404Z,4.40
2023-02-14T21:12:58.449Z,4.30
2023-02-14T21:15:26.370Z,4.20
2023-02-14T21:17:54.107Z,4.10
2023-02-14T21:20:23.239Z,4.10
2023-02-14T21:22:51.031Z,4.00
2023-02-14T21:25:19.616Z,3.80
2023-02-14T21:27:48.603Z,3.70
2023-02-14T21:30:16.626Z,3.60
2023-02-14T21:32:44.402Z,3.50
2023-02-14T21:35:12.229Z,3.60
2023-02-14T21:37:41.354Z,3.70
2023-02-14T21:40:09.977Z,3.70
2023-02-14T21:42:37.725Z,3.60
2023-02-14T21:45:23.514Z,3.50
2023-02-14T21:48:05.352Z,3.40
2023-02-14T21:50:33.103Z,3.30
2023-02-14T21:53:02.210Z,3.20
2023-02-14T21:55:30.066Z,3.20
2023-02-14T21:58:01.196Z,3.10
2023-02-14T22:00:29.085Z,3.20
2023-02-14T22:02:56.991Z,3.20
2023-02-14T22:05:25.996Z,3.20
2023-02-14T22:07:53.734Z,3.10
2023-02-14T22:10:22.901Z,3.10
2023-02-14T22:12:50.645Z,3.20
2023-02-14T22:15:18.499Z,3.10
2023-02-14T22:17:46.263Z,3.10
2023-02-14T22:20:14.097Z,2.90
2023-02-14T22:22:41.869Z,2.80
2023-02-14T22:25:09.578Z,2.70
2023-02-14T22:27:40.826Z,2.50
2023-02-14T22:30:09.550Z,2.30
2023-02-14T22:32:37.372Z,2.20
2023-02-14T22:35:05.424Z,2.00
2023-02-14T22:37:33.150Z,2.00
2023-02-14T22:40:00.838Z,2.00
2023-02-14T22:42:28.573Z,1.90
2023-02-14T22:44:57.595Z,1.90
2023-02-14T22:47:25.368Z,1.90
2023-02-14T22:49:53.082Z,1.80
2023-02-14T22:52:20.785Z,1.60
2023-02-14T22:54:52.695Z,1.50
2023-02-14T22:57:20.854Z,1.50
2023-02-14T22:59:48.578Z,1.40
2023-02-14T23:02:17.667Z,1.20
2023-02-14T23:04:45.403Z,1.00
2023-02-14T23:07:13.151Z,0.90
2023-02-14T23:09:40.862Z,0.90
2023-02-14T23:12:28.659Z,0.80
2023-02-14T23:15:13.880Z,0.70
2023-02-14T23:18:00.666Z,0.50
2023-02-14T23:20:46.313Z,0.50
2023-02-14T23:23:14.054Z,0.40
2023-02-14T23:25:43.295Z,0.30
2023-02-14T23:28:11.008Z,0.30
2023-02-14T23:30:38.710Z,0.20
2023-02-14T23:33:07.784Z,0.20
2023-02-14T23:35:37.713Z,0.10
2023-02-14T23:38:05.490Z,0.00
2023-02-14T23:40:54.241Z,0.00
2023-02-14T23:43:22.600Z,-0.10
2023-02-14T23:45:50.434Z,-0.10
2023-02-14T23:48:19.521Z,0.00
2023-02-14T23:50:50.581Z,-0.10
2023-02-14T23:53:18.304Z,-0.10
2023-02-14T23:55:46.068Z,0.10
2023-02-14T23:58:13.870Z,0.10
